sensor_id;sensor_type;location;lat;lon;timestamp;pressure;altitude;pressure_sealevel;temperature;humidity
12666;BME280;58531;59.050;17.416;2022-07-05T00:00:49;100538.19;;;10.98;98.80
12666;BME280;58531;59.050;17.416;2022-07-05T00:03:18;100540.28;;;10.94;99.06
12666;BME280;58531;59.050;17.416;2022-07-05T00:05:44;100539.97;;;10.92;99.46
12666;BME280;58531;59.050;17.416;2022-07-05T00:08:13;100532.06;;;10.88;99.73
12666;BME280;58531;59.050;17.416;2022-07-05T00:10:39;100531.47;;;10.84;99.43
12666;BME280;58531;59.050;17.416;2022-07-05T00:13:06;100520.16;;;10.80;99.81
12666;BME280;58531;59.050;17.416;2022-07-05T00:15:33;100525.50;;;10.80;99.71
12666;BME280;58531;59.050;17.416;2022-07-05T00:18:00;100524.78;;;10.80;100.00
12666;BME280;58531;59.050;17.416;2022-07-05T00:20:28;100522.09;;;10.80;100.00
12666;BME280;58531;59.050;17.416;2022-07-05T00:22:55;100529.03;;;10.77;100.00
12666;BME280;58531;59.050;17.416;2022-07-05T00:25:21;100520.41;;;10.73;99.99
12666;BME280;58531;59.050;17.416;2022-07-05T00:27:48;100526.53;;;10.74;100.00
12666;BME280;58531;59.050;17.416;2022-07-05T00:30:15;100529.19;;;10.74;100.00
12666;BME280;58531;59.050;17.416;2022-07-05T00:32:42;100528.88;;;10.72;100.00
12666;BME280;58531;59.050;17.416;2022-07-05T00:35:08;100531.38;;;10.66;99.88
12666;BME280;58531;59.050;17.416;2022-07-05T00:37:36;100532.38;;;10.60;99.81
12666;BME280;58531;59.050;17.416;2022-07-05T00:40:05;100536.78;;;10.54;99.42
12666;BME280;58531;59.050;17.416;2022-07-05T00:42:33;100539.59;;;10.51;99.77
12666;BME280;58531;59.050;17.416;2022-07-05T00:44:59;100536.47;;;10.52;100.00
12666;BME280;58531;59.050;17.416;2022-07-05T00:47:26;100536.34;;;10.56;100.00
12666;BME280;58531;59.050;17.416;2022-07-05T00:49:52;100538.56;;;10.57;100.00
12666;BME280;58531;59.050;17.416;2022-07-05T00:52:19;100534.31;;;10.59;100.00
12666;BME280;58531;59.050;17.416;2022-07-05T00:54:47;100536.34;;;10.56;100.00
12666;BME280;58531;59.050;17.416;2022-07-05T00:57:15;100541.81;;;10.52;100.00
12666;BME280;58531;59.050;17.416;2022-07-05T00:59:42;100545.34;;;10.49;100.00
12666;BME280;58531;59.050;17.416;2022-07-05T01:02:08;100543.53;;;10.46;100.00
12666;BME280;58531;59.050;17.416;2022-07-05T01:04:35;100538.34;;;10.43;100.00
12666;BME280;58531;59.050;17.416;2022-07-05T01:07:02;100534.06;;;10.45;100.00
12666;BME280;58531;59.050;17.416;2022-07-05T01:09:32;100526.06;;;10.45;100.00
12666;BME280;58531;59.050;17.416;2022-07-05T01:12:01;100528.16;;;10.50;100.00
12666;BME280;58531;59.050;17.416;2022-07-05T01:14:28;100516.59;;;10.53;100.00
12666;BME280;58531;59.050;17.416;2022-07-05T01:16:55;100529.06;;;10.56;100.00
12666;BME280;58531;59.050;17.416;2022-07-05T01:19:22;100536.22;;;10.59;100.00
12666;BME280;58531;59.050;17.416;2022-07-05T01:21:49;100529.13;;;10.65;100.00
12666;BME280;58531;59.050;17.416;2022-07-05T01:24:18;100529.75;;;10.69;100.00
12666;BME280;58531;59.050;17.416;2022-07-05T01:26:47;100534.94;;;10.72;100.00
12666;BME280;58531;59.050;17.416;2022-07-05T01:29:15;100532.91;;;10.76;100.00
12666;BME280;58531;59.050;17.416;2022-07-05T01:31:42;100528.16;;;10.80;100.00
12666;BME280;58531;59.050;17.416;2022-07-05T01:34:09;100531.91;;;10.83;100.00
12666;BME280;58531;59.050;17.416;2022-07-05T01:36:36;100529.84;;;10.87;100.00
12666;BME280;58531;59.050;17.416;2022-07-05T01:39:06;100529.28;;;10.92;100.00
12666;BME280;58531;59.050;17.416;2022-07-05T01:41:34;100524.56;;;10.96;100.00
12666;BME280;58531;59.050;17.416;2022-07-05T01:44:01;100520.69;;;10.97;100.00
12666;BME280;58531;59.050;17.416;2022-07-05T01:46:30;100520.97;;;10.99;100.00
12666;BME280;58531;59.050;17.416;2022-07-05T01:49:00;100529.75;;;10.99;100.00
12666;BME280;58531;59.050;17.416;2022-07-05T01:51:33;100529.00;;;10.99;100.00
12666;BME280;58531;59.050;17.416;2022-07-05T01:54:00;100530.78;;;11.02;100.00
12666;BME280;58531;59.050;17.416;2022-07-05T01:56:27;100533.19;;;11.09;100.00
12666;BME280;58531;59.050;17.416;2022-07-05T01:58:56;100532.31;;;11.12;100.00
12666;BME280;58531;59.050;17.416;2022-07-05T02:01:34;100541.56;;;11.20;100.00
12666;BME280;58531;59.050;17.416;2022-07-05T02:04:02;100531.78;;;11.26;100.00
12666;BME280;58531;59.050;17.416;2022-07-05T02:06:30;100536.88;;;11.33;100.00
12666;BME280;58531;59.050;17.416;2022-07-05T02:08:57;100541.63;;;11.38;100.00
12666;BME280;58531;59.050;17.416;2022-07-05T02:11:24;100539.28;;;11.40;100.00
12666;BME280;58531;59.050;17.416;2022-07-05T02:13:52;100534.06;;;11.45;100.00
12666;BME280;58531;59.050;17.416;2022-07-05T02:16:23;100532.63;;;11.53;100.00
12666;BME280;58531;59.050;17.416;2022-07-05T02:18:49;100542.75;;;11.58;100.00
12666;BME280;58531;59.050;17.416;2022-07-05T02:21:16;100534.59;;;11.62;100.00
12666;BME280;58531;59.050;17.416;2022-07-05T02:23:46;100539.66;;;11.69;100.00
12666;BME280;58531;59.050;17.416;2022-07-05T02:26:12;100534.59;;;11.71;100.00
12666;BME280;58531;59.050;17.416;2022-07-05T02:28:39;100539.81;;;11.74;100.00
12666;BME280;58531;59.050;17.416;2022-07-05T02:31:07;100540.28;;;11.81;100.00
12666;BME280;58531;59.050;17.416;2022-07-05T02:33:35;100536.44;;;11.91;100.00
12666;BME280;58531;59.050;17.416;2022-07-05T02:36:06;100547.56;;;11.99;100.00
12666;BME280;58531;59.050;17.416;2022-07-05T02:38:33;100545.63;;;12.08;100.00
12666;BME280;58531;59.050;17.416;2022-07-05T02:41:00;100544.75;;;12.11;100.00
12666;BME280;58531;59.050;17.416;2022-07-05T02:43:26;100552.78;;;12.20;100.00
12666;BME280;58531;59.050;17.416;2022-07-05T02:45:53;100548.63;;;12.28;100.00
12666;BME280;58531;59.050;17.416;2022-07-05T02:48:20;100549.22;;;12.32;100.00
12666;BME280;58531;59.050;17.416;2022-07-05T02:50:48;100554.88;;;12.34;100.00
12666;BME280;58531;59.050;17.416;2022-07-05T02:53:14;100542.22;;;12.35;100.00
12666;BME280;58531;59.050;17.416;2022-07-05T02:55:41;100549.22;;;12.32;100.00
12666;BME280;58531;59.050;17.416;2022-07-05T02:58:07;100553.09;;;12.31;100.00
12666;BME280;58531;59.050;17.416;2022-07-05T03:00:34;100556.94;;;12.30;100.00
12666;BME280;58531;59.050;17.416;2022-07-05T03:03:01;100561.72;;;12.26;100.00
12666;BME280;58531;59.050;17.416;2022-07-05T03:05:27;100552.03;;;12.29;100.00
12666;BME280;58531;59.050;17.416;2022-07-05T03:07:55;100542.22;;;12.35;100.00
12666;BME280;58531;59.050;17.416;2022-07-05T03:10:22;100554.69;;;12.38;100.00
12666;BME280;58531;59.050;17.416;2022-07-05T03:12:50;100558.41;;;12.49;100.00
12666;BME280;58531;59.050;17.416;2022-07-05T03:15:17;100559.81;;;14.07;100.00
12666;BME280;58531;59.050;17.416;2022-07-05T03:17:44;100564.56;;;15.56;100.00
12666;BME280;58531;59.050;17.416;2022-07-05T03:20:10;100569.00;;;16.89;100.00
12666;BME280;58531;59.050;17.416;2022-07-05T03:22:37;100571.47;;;18.18;100.00
12666;BME280;58531;59.050;17.416;2022-07-05T03:25:06;100575.28;;;18.59;100.00
12666;BME280;58531;59.050;17.416;2022-07-05T03:27:33;100568.69;;;19.15;83.87
12666;BME280;58531;59.050;17.416;2022-07-05T03:29:59;100562.41;;;19.64;74.36
12666;BME280;58531;59.050;17.416;2022-07-05T03:32:26;100558.75;;;20.18;67.48
12666;BME280;58531;59.050;17.416;2022-07-05T03:34:53;100564.06;;;19.83;66.63
12666;BME280;58531;59.050;17.416;2022-07-05T03:37:19;100569.16;;;18.86;70.45
12666;BME280;58531;59.050;17.416;2022-07-05T03:39:46;100570.03;;;17.65;71.63
12666;BME280;58531;59.050;17.416;2022-07-05T03:42:14;100565.44;;;17.34;74.72
12666;BME280;58531;59.050;17.416;2022-07-05T03:44:40;100568.66;;;16.76;75.96
12666;BME280;58531;59.050;17.416;2022-07-05T03:47:07;100563.03;;;16.29;77.32
12666;BME280;58531;59.050;17.416;2022-07-05T03:49:34;100574.56;;;15.90;78.83
12666;BME280;58531;59.050;17.416;2022-07-05T03:52:00;100567.19;;;15.50;79.76
12666;BME280;58531;59.050;17.416;2022-07-05T03:54:27;100566.69;;;15.18;81.11
12666;BME280;58531;59.050;17.416;2022-07-05T03:56:53;100571.81;;;15.01;82.68
12666;BME280;58531;59.050;17.416;2022-07-05T03:59:21;100571.53;;;15.82;81.18
12666;BME280;58531;59.050;17.416;2022-07-05T04:01:48;100576.38;;;17.56;75.50
12666;BME280;58531;59.050;17.416;2022-07-05T04:04:15;100580.44;;;19.50;68.50
12666;BME280;58531;59.050;17.416;2022-07-05T04:06:41;100584.16;;;20.96;62.11
12666;BME280;58531;59.050;17.416;2022-07-05T04:09:08;100581.09;;;22.43;56.90
12666;BME280;58531;59.050;17.416;2022-07-05T04:11:35;100577.69;;;23.44;53.60
12666;BME280;58531;59.050;17.416;2022-07-05T04:14:02;100578.81;;;24.00;52.48
12666;BME280;58531;59.050;17.416;2022-07-05T04:16:30;100580.59;;;24.98;49.26
12666;BME280;58531;59.050;17.416;2022-07-05T04:18:57;100576.31;;;25.10;47.79
12666;BME280;58531;59.050;17.416;2022-07-05T04:21:23;100580.00;;;24.38;49.23
12666;BME280;58531;59.050;17.416;2022-07-05T04:23:50;100589.47;;;25.67;46.89
12666;BME280;58531;59.050;17.416;2022-07-05T04:26:16;100580.47;;;24.83;47.70
12666;BME280;58531;59.050;17.416;2022-07-05T04:28:44;100585.88;;;25.16;46.20
12666;BME280;58531;59.050;17.416;2022-07-05T04:31:12;100591.28;;;25.92;45.46
12666;BME280;58531;59.050;17.416;2022-07-05T04:33:40;100576.38;;;25.73;45.57
12666;BME280;58531;59.050;17.416;2022-07-05T04:36:07;100587.03;;;26.34;42.99
12666;BME280;58531;59.050;17.416;2022-07-05T04:38:33;100590.41;;;26.05;43.39
12666;BME280;58531;59.050;17.416;2022-07-05T04:41:00;100594.22;;;25.94;42.04
12666;BME280;58531;59.050;17.416;2022-07-05T04:43:27;100587.03;;;25.84;44.19
12666;BME280;58531;59.050;17.416;2022-07-05T04:45:53;100597.00;;;25.46;42.96
12666;BME280;58531;59.050;17.416;2022-07-05T04:48:22;100599.22;;;27.21;41.58
12666;BME280;58531;59.050;17.416;2022-07-05T04:50:50;100599.38;;;27.00;40.97
12666;BME280;58531;59.050;17.416;2022-07-05T04:53:16;100600.28;;;27.40;40.79
12666;BME280;58531;59.050;17.416;2022-07-05T04:55:43;100593.53;;;27.49;40.00
12666;BME280;58531;59.050;17.416;2022-07-05T04:58:09;100592.59;;;26.49;41.19
12666;BME280;58531;59.050;17.416;2022-07-05T05:00:37;100596.47;;;26.98;40.78
12666;BME280;58531;59.050;17.416;2022-07-05T05:03:03;100601.72;;;27.56;38.98
12666;BME280;58531;59.050;17.416;2022-07-05T05:05:30;100602.66;;;27.51;39.77
12666;BME280;58531;59.050;17.416;2022-07-05T05:07:58;100593.94;;;26.28;42.05
12666;BME280;58531;59.050;17.416;2022-07-05T05:10:25;100590.31;;;26.33;42.45
12666;BME280;58531;59.050;17.416;2022-07-05T05:12:51;100590.13;;;26.31;43.09
12666;BME280;58531;59.050;17.416;2022-07-05T05:15:18;100591.75;;;24.46;46.60
12666;BME280;58531;59.050;17.416;2022-07-05T05:17:45;100587.84;;;23.30;49.81
12666;BME280;58531;59.050;17.416;2022-07-05T05:20:13;100586.16;;;22.83;50.38
12666;BME280;58531;59.050;17.416;2022-07-05T05:22:41;100582.69;;;22.33;51.46
12666;BME280;58531;59.050;17.416;2022-07-05T05:25:10;100586.28;;;22.59;53.34
12666;BME280;58531;59.050;17.416;2022-07-05T05:27:40;100583.22;;;22.81;51.32
12666;BME280;58531;59.050;17.416;2022-07-05T05:30:08;100591.91;;;23.24;49.76
12666;BME280;58531;59.050;17.416;2022-07-05T05:32:35;100592.41;;;22.78;51.07
12666;BME280;58531;59.050;17.416;2022-07-05T05:35:01;100596.03;;;23.56;48.89
12666;BME280;58531;59.050;17.416;2022-07-05T05:37:28;100598.78;;;22.99;50.38
12666;BME280;58531;59.050;17.416;2022-07-05T05:39:55;100602.44;;;22.70;52.18
12666;BME280;58531;59.050;17.416;2022-07-05T05:42:23;100599.59;;;23.25;50.09
12666;BME280;58531;59.050;17.416;2022-07-05T05:44:49;100593.94;;;23.23;48.16
12666;BME280;58531;59.050;17.416;2022-07-05T05:47:16;100595.19;;;24.59;45.80
12666;BME280;58531;59.050;17.416;2022-07-05T05:49:42;100602.03;;;25.14;43.27
12666;BME280;58531;59.050;17.416;2022-07-05T05:52:09;100602.69;;;24.33;45.34
12666;BME280;58531;59.050;17.416;2022-07-05T05:54:36;100601.56;;;24.62;47.30
12666;BME280;58531;59.050;17.416;2022-07-05T05:57:02;100601.94;;;25.47;45.09
12666;BME280;58531;59.050;17.416;2022-07-05T05:59:30;100605.56;;;26.78;41.92
12666;BME280;58531;59.050;17.416;2022-07-05T06:01:57;100600.38;;;25.59;42.74
12666;BME280;58531;59.050;17.416;2022-07-05T06:04:24;100606.88;;;27.37;40.40
12666;BME280;58531;59.050;17.416;2022-07-05T06:06:50;100597.50;;;26.50;40.14
12666;BME280;58531;59.050;17.416;2022-07-05T06:09:17;100596.97;;;26.02;39.33
12666;BME280;58531;59.050;17.416;2022-07-05T06:11:43;100608.75;;;27.27;38.25
12666;BME280;58531;59.050;17.416;2022-07-05T06:14:10;100606.13;;;27.44;36.29
12666;BME280;58531;59.050;17.416;2022-07-05T06:16:38;100607.47;;;28.05;34.76
12666;BME280;58531;59.050;17.416;2022-07-05T06:19:05;100602.69;;;27.36;38.90
12666;BME280;58531;59.050;17.416;2022-07-05T06:21:31;100597.34;;;28.79;35.53
12666;BME280;58531;59.050;17.416;2022-07-05T06:23:58;100606.44;;;30.05;32.97
12666;BME280;58531;59.050;17.416;2022-07-05T06:26:25;100601.53;;;29.53;34.08
12666;BME280;58531;59.050;17.416;2022-07-05T06:28:51;100601.25;;;28.44;35.49
12666;BME280;58531;59.050;17.416;2022-07-05T06:31:18;100600.09;;;27.53;36.42
12666;BME280;58531;59.050;17.416;2022-07-05T06:33:46;100598.25;;;27.63;36.12
12666;BME280;58531;59.050;17.416;2022-07-05T06:36:12;100588.72;;;27.64;35.86
12666;BME280;58531;59.050;17.416;2022-07-05T06:38:39;100597.47;;;29.54;34.32
12666;BME280;58531;59.050;17.416;2022-07-05T06:41:07;100604.16;;;30.11;31.78
12666;BME280;58531;59.050;17.416;2022-07-05T06:43:34;100602.09;;;29.27;32.94
12666;BME280;58531;59.050;17.416;2022-07-05T06:46:00;100610.66;;;29.55;31.88
12666;BME280;58531;59.050;17.416;2022-07-05T06:48:27;100603.56;;;28.55;34.79
12666;BME280;58531;59.050;17.416;2022-07-05T06:50:55;100604.38;;;28.40;34.20
12666;BME280;58531;59.050;17.416;2022-07-05T06:53:22;100608.47;;;29.54;33.78
12666;BME280;58531;59.050;17.416;2022-07-05T06:55:48;100615.38;;;29.79;34.36
12666;BME280;58531;59.050;17.416;2022-07-05T06:58:16;100622.69;;;30.54;31.23
12666;BME280;58531;59.050;17.416;2022-07-05T07:00:43;100616.00;;;30.04;32.22
12666;BME280;58531;59.050;17.416;2022-07-05T07:03:10;100616.31;;;30.08;30.87
12666;BME280;58531;59.050;17.416;2022-07-05T07:05:37;100621.41;;;27.92;33.95
12666;BME280;58531;59.050;17.416;2022-07-05T07:08:05;100622.06;;;27.68;38.14
12666;BME280;58531;59.050;17.416;2022-07-05T07:10:49;100617.72;;;28.44;34.99
12666;BME280;58531;59.050;17.416;2022-07-05T07:13:15;100615.75;;;28.69;33.73
12666;BME280;58531;59.050;17.416;2022-07-05T07:15:42;100615.91;;;29.44;33.25
12666;BME280;58531;59.050;17.416;2022-07-05T07:18:11;100615.69;;;30.00;31.87
12666;BME280;58531;59.050;17.416;2022-07-05T07:20:38;100615.91;;;27.92;36.43
12666;BME280;58531;59.050;17.416;2022-07-05T07:23:06;100608.19;;;27.06;36.82
12666;BME280;58531;59.050;17.416;2022-07-05T07:25:32;100603.97;;;24.65;39.34
12666;BME280;58531;59.050;17.416;2022-07-05T07:27:59;100611.69;;;24.74;39.59
12666;BME280;58531;59.050;17.416;2022-07-05T07:30:27;100604.34;;;23.90;42.08
12666;BME280;58531;59.050;17.416;2022-07-05T07:32:54;100603.84;;;25.32;39.75
12666;BME280;58531;59.050;17.416;2022-07-05T07:35:21;100614.00;;;26.95;36.51
12666;BME280;58531;59.050;17.416;2022-07-05T07:37:48;100616.16;;;27.64;34.90
12666;BME280;58531;59.050;17.416;2022-07-05T07:40:16;100617.41;;;25.45;39.18
12666;BME280;58531;59.050;17.416;2022-07-05T07:42:43;100611.47;;;24.52;42.40
12666;BME280;58531;59.050;17.416;2022-07-05T07:45:10;100613.22;;;24.16;43.35
12666;BME280;58531;59.050;17.416;2022-07-05T07:47:37;100613.59;;;23.99;41.63
12666;BME280;58531;59.050;17.416;2022-07-05T07:50:05;100608.97;;;22.80;45.86
12666;BME280;58531;59.050;17.416;2022-07-05T07:52:31;100605.63;;;22.37;47.02
12666;BME280;58531;59.050;17.416;2022-07-05T07:54:59;100600.41;;;21.31;47.54
12666;BME280;58531;59.050;17.416;2022-07-05T07:57:28;100614.84;;;20.80;49.63
12666;BME280;58531;59.050;17.416;2022-07-05T07:59:55;100605.66;;;20.13;52.13
12666;BME280;58531;59.050;17.416;2022-07-05T08:02:22;100600.28;;;19.91;50.51
12666;BME280;58531;59.050;17.416;2022-07-05T08:04:49;100603.94;;;19.94;50.09
12666;BME280;58531;59.050;17.416;2022-07-05T08:07:16;100607.13;;;20.09;50.60
12666;BME280;58531;59.050;17.416;2022-07-05T08:09:43;100603.72;;;21.18;50.36
12666;BME280;58531;59.050;17.416;2022-07-05T08:12:12;100608.97;;;21.40;50.27
12666;BME280;58531;59.050;17.416;2022-07-05T08:14:41;100608.34;;;21.52;50.98
12666;BME280;58531;59.050;17.416;2022-07-05T08:17:08;100606.56;;;22.03;48.83
12666;BME280;58531;59.050;17.416;2022-07-05T08:19:35;100608.56;;;22.21;47.07
12666;BME280;58531;59.050;17.416;2022-07-05T08:22:19;100602.00;;;22.29;45.42
12666;BME280;58531;59.050;17.416;2022-07-05T08:24:46;100607.75;;;21.65;52.22
12666;BME280;58531;59.050;17.416;2022-07-05T08:27:13;100604.19;;;20.93;50.85
12666;BME280;58531;59.050;17.416;2022-07-05T08:29:41;100600.75;;;19.95;50.48
12666;BME280;58531;59.050;17.416;2022-07-05T08:32:08;100603.28;;;19.71;52.42
12666;BME280;58531;59.050;17.416;2022-07-05T08:34:36;100607.31;;;19.26;52.65
12666;BME280;58531;59.050;17.416;2022-07-05T08:37:03;100612.00;;;19.15;55.20
12666;BME280;58531;59.050;17.416;2022-07-05T08:39:29;100608.28;;;19.02;56.03
12666;BME280;58531;59.050;17.416;2022-07-05T08:41:57;100610.75;;;19.00;55.68
12666;BME280;58531;59.050;17.416;2022-07-05T08:44:27;100602.75;;;19.89;57.41
12666;BME280;58531;59.050;17.416;2022-07-05T08:46:56;100612.38;;;20.47;54.48
12666;BME280;58531;59.050;17.416;2022-07-05T08:49:26;100622.03;;;20.83;52.90
12666;BME280;58531;59.050;17.416;2022-07-05T08:51:53;100615.56;;;20.51;53.08
12666;BME280;58531;59.050;17.416;2022-07-05T08:54:21;100615.31;;;20.43;53.87
12666;BME280;58531;59.050;17.416;2022-07-05T08:56:49;100615.94;;;20.20;53.67
12666;BME280;58531;59.050;17.416;2022-07-05T08:59:16;100611.47;;;20.28;54.83
12666;BME280;58531;59.050;17.416;2022-07-05T09:01:44;100620.38;;;20.23;54.85
12666;BME280;58531;59.050;17.416;2022-07-05T09:04:13;100609.63;;;20.01;54.56
12666;BME280;58531;59.050;17.416;2022-07-05T09:06:46;100608.34;;;20.13;53.55
12666;BME280;58531;59.050;17.416;2022-07-05T09:09:17;100615.13;;;20.82;52.80
12666;BME280;58531;59.050;17.416;2022-07-05T09:11:45;100608.38;;;21.47;50.03
12666;BME280;58531;59.050;17.416;2022-07-05T09:14:19;100617.91;;;21.64;54.25
12666;BME280;58531;59.050;17.416;2022-07-05T09:16:46;100613.09;;;21.47;51.69
12666;BME280;58531;59.050;17.416;2022-07-05T09:19:14;100615.31;;;21.19;52.12
12666;BME280;58531;59.050;17.416;2022-07-05T09:21:41;100614.94;;;20.69;51.22
12666;BME280;58531;59.050;17.416;2022-07-05T09:24:09;100609.72;;;20.71;53.27
12666;BME280;58531;59.050;17.416;2022-07-05T09:26:37;100615.88;;;21.41;52.48
12666;BME280;58531;59.050;17.416;2022-07-05T09:29:05;100626.38;;;21.98;49.53
12666;BME280;58531;59.050;17.416;2022-07-05T09:31:34;100623.56;;;22.27;47.84
12666;BME280;58531;59.050;17.416;2022-07-05T09:34:05;100617.69;;;22.60;50.09
12666;BME280;58531;59.050;17.416;2022-07-05T09:36:53;100626.91;;;22.57;50.87
12666;BME280;58531;59.050;17.416;2022-07-05T09:39:39;100638.13;;;23.16;50.88
12666;BME280;58531;59.050;17.416;2022-07-05T09:42:15;100633.47;;;23.43;47.14
12666;BME280;58531;59.050;17.416;2022-07-05T09:44:45;100642.06;;;23.34;48.10
12666;BME280;58531;59.050;17.416;2022-07-05T09:47:14;100640.41;;;23.44;47.13
12666;BME280;58531;59.050;17.416;2022-07-05T09:49:43;100638.84;;;22.30;48.91
12666;BME280;58531;59.050;17.416;2022-07-05T09:52:12;100641.16;;;21.84;50.73
12666;BME280;58531;59.050;17.416;2022-07-05T09:55:00;100637.47;;;20.99;52.40
12666;BME280;58531;59.050;17.416;2022-07-05T09:57:27;100643.34;;;21.85;54.78
12666;BME280;58531;59.050;17.416;2022-07-05T09:59:58;100643.56;;;22.85;48.37
12666;BME280;58531;59.050;17.416;2022-07-05T10:02:34;100640.88;;;23.16;49.01
12666;BME280;58531;59.050;17.416;2022-07-05T10:05:11;100651.09;;;23.42;49.44
12666;BME280;58531;59.050;17.416;2022-07-05T10:07:43;100643.88;;;23.44;48.18
12666;BME280;58531;59.050;17.416;2022-07-05T10:10:12;100636.59;;;23.02;48.82
12666;BME280;58531;59.050;17.416;2022-07-05T10:12:39;100645.22;;;23.51;49.13
12666;BME280;58531;59.050;17.416;2022-07-05T10:15:09;100647.91;;;23.25;47.81
12666;BME280;58531;59.050;17.416;2022-07-05T10:17:38;100646.31;;;23.61;48.97
12666;BME280;58531;59.050;17.416;2022-07-05T10:20:12;100646.31;;;23.16;49.23
12666;BME280;58531;59.050;17.416;2022-07-05T10:22:41;100640.66;;;22.46;48.70
12666;BME280;58531;59.050;17.416;2022-07-05T10:25:09;100641.13;;;21.65;51.88
12666;BME280;58531;59.050;17.416;2022-07-05T10:27:37;100632.81;;;22.00;49.46
12666;BME280;58531;59.050;17.416;2022-07-05T10:30:04;100632.41;;;22.52;49.33
12666;BME280;58531;59.050;17.416;2022-07-05T10:32:33;100643.91;;;23.13;49.79
12666;BME280;58531;59.050;17.416;2022-07-05T10:35:00;100643.56;;;23.48;47.22
12666;BME280;58531;59.050;17.416;2022-07-05T10:37:29;100651.94;;;23.50;45.62
12666;BME280;58531;59.050;17.416;2022-07-05T10:40:00;100650.50;;;22.31;45.86
12666;BME280;58531;59.050;17.416;2022-07-05T10:42:31;100643.69;;;21.52;47.79
12666;BME280;58531;59.050;17.416;2022-07-05T10:44:59;100655.09;;;20.76;50.88
12666;BME280;58531;59.050;17.416;2022-07-05T10:47:26;100653.16;;;20.71;52.69
12666;BME280;58531;59.050;17.416;2022-07-05T10:50:03;100648.53;;;20.60;55.46
12666;BME280;58531;59.050;17.416;2022-07-05T10:52:30;100648.94;;;21.16;53.45
12666;BME280;58531;59.050;17.416;2022-07-05T10:55:23;100644.63;;;21.55;52.06
12666;BME280;58531;59.050;17.416;2022-07-05T10:58:18;100638.47;;;21.78;53.70
12666;BME280;58531;59.050;17.416;2022-07-05T11:00:46;100641.16;;;21.84;51.99
12666;BME280;58531;59.050;17.416;2022-07-05T11:03:32;100643.22;;;21.96;50.70
12666;BME280;58531;59.050;17.416;2022-07-05T11:05:59;100631.91;;;21.92;53.22
12666;BME280;58531;59.050;17.416;2022-07-05T11:08:29;100626.91;;;21.96;52.69
12666;BME280;58531;59.050;17.416;2022-07-05T11:11:09;100626.56;;;22.05;50.42
12666;BME280;58531;59.050;17.416;2022-07-05T11:13:37;100617.59;;;22.10;50.18
12666;BME280;58531;59.050;17.416;2022-07-05T11:16:23;100619.75;;;22.17;51.47
12666;BME280;58531;59.050;17.416;2022-07-05T11:18:51;100620.50;;;22.36;47.79
12666;BME280;58531;59.050;17.416;2022-07-05T11:21:19;100611.78;;;22.19;48.89
12666;BME280;58531;59.050;17.416;2022-07-05T11:23:46;100609.00;;;22.25;48.52
12666;BME280;58531;59.050;17.416;2022-07-05T11:26:17;100619.81;;;22.12;49.52
12666;BME280;58531;59.050;17.416;2022-07-05T11:28:45;100605.06;;;22.44;48.14
12666;BME280;58531;59.050;17.416;2022-07-05T11:31:12;100609.13;;;22.69;47.52
12666;BME280;58531;59.050;17.416;2022-07-05T11:34:12;100601.03;;;22.82;49.31
12666;BME280;58531;59.050;17.416;2022-07-05T11:36:39;100603.25;;;22.28;45.71
12666;BME280;58531;59.050;17.416;2022-07-05T11:39:10;100605.47;;;21.69;46.64
12666;BME280;58531;59.050;17.416;2022-07-05T11:41:42;100603.09;;;21.60;50.50
12666;BME280;58531;59.050;17.416;2022-07-05T11:44:08;100604.69;;;22.16;49.05
12666;BME280;58531;59.050;17.416;2022-07-05T11:46:36;100602.66;;;21.98;49.14
12666;BME280;58531;59.050;17.416;2022-07-05T11:49:03;100604.84;;;21.81;47.32
12666;BME280;58531;59.050;17.416;2022-07-05T11:51:30;100594.06;;;21.70;46.19
12666;BME280;58531;59.050;17.416;2022-07-05T11:53:56;100599.41;;;21.81;46.70
12666;BME280;58531;59.050;17.416;2022-07-05T11:56:23;100599.41;;;21.81;46.44
12666;BME280;58531;59.050;17.416;2022-07-05T11:58:51;100603.31;;;21.38;47.50
12666;BME280;58531;59.050;17.416;2022-07-05T12:01:19;100599.84;;;21.38;48.70
12666;BME280;58531;59.050;17.416;2022-07-05T12:03:55;100606.63;;;21.49;48.04
12666;BME280;58531;59.050;17.416;2022-07-05T12:06:22;100624.38;;;21.27;46.09
12666;BME280;58531;59.050;17.416;2022-07-05T12:09:03;100619.44;;;20.61;49.09
12666;BME280;58531;59.050;17.416;2022-07-05T12:11:30;100622.53;;;19.68;54.67
12666;BME280;58531;59.050;17.416;2022-07-05T12:14:21;100626.50;;;19.28;55.39
12666;BME280;58531;59.050;17.416;2022-07-05T12:16:48;100619.09;;;18.96;57.25
12666;BME280;58531;59.050;17.416;2022-07-05T12:19:23;100626.50;;;19.17;56.84
12666;BME280;58531;59.050;17.416;2022-07-05T12:21:52;100613.06;;;19.96;54.91
12666;BME280;58531;59.050;17.416;2022-07-05T12:24:19;100615.72;;;20.64;52.86
12666;BME280;58531;59.050;17.416;2022-07-05T12:26:46;100608.97;;;20.81;51.64
12666;BME280;58531;59.050;17.416;2022-07-05T12:29:13;100610.09;;;20.97;50.06
12666;BME280;58531;59.050;17.416;2022-07-05T12:31:57;100613.84;;;21.18;49.47
12666;BME280;58531;59.050;17.416;2022-07-05T12:34:24;100614.41;;;21.40;51.47
12666;BME280;58531;59.050;17.416;2022-07-05T12:36:51;100614.34;;;21.69;48.23
12666;BME280;58531;59.050;17.416;2022-07-05T12:39:17;100609.56;;;22.42;49.06
12666;BME280;58531;59.050;17.416;2022-07-05T12:41:44;100610.09;;;22.72;45.88
12666;BME280;58531;59.050;17.416;2022-07-05T12:44:11;100603.63;;;22.74;44.87